createdAt,value
2018-01-01T00:00:36.075Z,34.17
2018-01-01T00:01:44.909Z,33.2
2018-01-01T00:02:53.734Z,31.58
2018-01-01T00:04:02.664Z,31.01
2018-01-01T00:05:11.493Z,32.24
2018-01-01T00:06:20.323Z,33.39
2018-01-01T00:07:29.148Z,33.29
2018-01-01T00:08:37.976Z,33.96
2018-01-01T00:09:46.806Z,34.81
2018-01-01T00:10:55.634Z,34.72
2018-01-01T00:12:04.464Z,33.39
2018-01-01T00:13:13.292Z,34.24
2018-01-01T00:14:22.393Z,34.24
2018-01-01T00:15:31.221Z,35.19
2018-01-01T00:16:40.049Z,37.19
2018-01-01T00:17:48.877Z,36.04
2018-01-01T00:18:57.707Z,36.04
2018-01-01T00:20:06.541Z,36.22
2018-01-01T00:21:15.368Z,34.99
2018-01-01T00:22:24.195Z,36.13
2018-01-01T00:23:33.026Z,36.7
2018-01-01T00:24:41.904Z,34.61
2018-01-01T00:25:50.733Z,35.08
2018-01-01T00:26:59.566Z,36.79
2018-01-01T00:28:08.396Z,33.94
2018-01-01T00:29:17.222Z,34.8
2018-01-01T00:30:26.153Z,34.61
2018-01-01T00:31:34.981Z,34.99
2018-01-01T00:32:43.813Z,34.7
2018-01-01T00:33:52.638Z,34.7
2018-01-01T00:35:01.466Z,33.94
2018-01-01T00:36:10.597Z,33.94
2018-01-01T00:37:19.426Z,34.13
2018-01-01T00:38:28.256Z,33.94
2018-01-01T00:39:37.082Z,34.7
2018-01-01T00:40:45.913Z,34.23
2018-01-01T00:41:55.281Z,34.89
2018-01-01T00:43:04.107Z,34.23
2018-01-01T00:44:12.937Z,34.7
2018-01-01T00:45:21.765Z,34.13
2018-01-01T00:46:30.593Z,33.65
2018-01-01T00:47:39.421Z,34.23
2018-01-01T00:48:48.252Z,34.7
2018-01-01T00:49:57.364Z,34.8
2018-01-01T00:51:06.183Z,34.89
2018-01-01T00:52:15.012Z,34.88
2018-01-01T00:53:23.941Z,35.25
2018-01-01T00:54:32.772Z,35.16
2018-01-01T00:55:41.874Z,35.16
2018-01-01T00:56:50.702Z,34.69
2018-01-01T00:57:59.531Z,34.78
2018-01-01T00:59:08.409Z,34.69
2018-01-01T01:00:17.237Z,34.59
2018-01-01T01:01:26.066Z,34.78
2018-01-01T01:02:34.893Z,34.88
2018-01-01T01:03:43.721Z,34.88
2018-01-01T01:04:52.700Z,34.78
2018-01-01T01:06:01.530Z,34.78
2018-01-01T01:07:10.357Z,34.78
2018-01-01T01:08:19.186Z,34.69
2018-01-01T01:09:28.015Z,34.78
2018-01-01T01:10:37.220Z,34.59
2018-01-01T01:11:46.049Z,34.78
2018-01-01T01:12:54.876Z,34.69
2018-01-01T01:14:03.707Z,34.21
2018-01-01T01:15:12.814Z,33.83
2018-01-01T01:16:21.643Z,34.4
2018-01-01T01:17:30.469Z,34.69
2018-01-01T01:18:39.301Z,34.69
2018-01-01T01:19:48.126Z,34.78
2018-01-01T01:20:56.956Z,35.44
2018-01-01T01:22:05.782Z,35.25
2018-01-01T01:23:14.611Z,35.35
2018-01-01T01:24:23.437Z,35.92
2018-01-01T01:25:32.265Z,35.73
2018-01-01T01:26:41.094Z,35.63
2018-01-01T01:27:50.071Z,35.73
2018-01-01T01:28:58.903Z,36.96
2018-01-01T01:30:07.732Z,37.73
2018-01-01T01:31:16.560Z,38.51
2018-01-01T01:32:25.388Z,37.06
2018-01-01T01:33:34.216Z,38.03
2018-01-01T01:34:43.048Z,38.12
2018-01-01T01:35:51.876Z,38.12
2018-01-01T01:37:00.704Z,38.48
2018-01-01T01:38:09.533Z,39.36
2018-01-01T01:39:18.464Z,39.17
2018-01-01T01:40:27.291Z,39.17
2018-01-01T01:41:36.119Z,39.93
2018-01-01T01:42:44.951Z,39.26
2018-01-01T01:43:53.804Z,40.03
2018-01-01T01:45:02.784Z,40.31
2018-01-01T01:46:11.612Z,40.22
2018-01-01T01:47:20.456Z,40.31
2018-01-01T01:48:29.285Z,40.5
2018-01-01T01:49:38.117Z,42.02
2018-01-01T01:50:47.094Z,41.74
2018-01-01T01:51:55.922Z,42.31
2018-01-01T01:53:04.749Z,43.35
2018-01-01T01:54:13.577Z,42.4
2018-01-01T01:55:22.406Z,42.79
2018-01-01T01:56:31.334Z,42.47
2018-01-01T01:57:40.164Z,42.97
2018-01-01T01:58:48.994Z,42.69
2018-01-01T01:59:57.822Z,43.35
2018-01-01T02:01:06.649Z,43.16
2018-01-01T02:02:15.626Z,43.05
2018-01-01T02:03:24.456Z,42.88
2018-01-01T02:04:33.286Z,44.02
2018-01-01T02:05:42.116Z,44.02
2018-01-01T02:06:50.946Z,46.59
2018-01-01T02:08:00.205Z,44.4
2018-01-01T02:09:09.023Z,46.11
2018-01-01T02:10:17.851Z,45.35
2018-01-01T02:11:26.679Z,45.54
2018-01-01T02:12:35.507Z,47.06
2018-01-01T02:13:44.339Z,47.63
2018-01-01T02:14:53.168Z,47.44
2018-01-01T02:16:01.998Z,48.11
2018-01-01T02:17:10.827Z,49.06
2018-01-01T02:18:19.658Z,48.68
2018-01-01T02:19:28.787Z,50.2
2018-01-01T02:20:37.614Z,50.68
2018-01-01T02:21:46.442Z,50.2
2018-01-01T02:22:55.272Z,53.15
2018-01-01T02:24:04.100Z,56.57
2018-01-01T02:25:13.228Z,55.05
2018-01-01T02:26:22.056Z,54.19
2018-01-01T02:27:30.886Z,53.81
2018-01-01T02:28:39.715Z,55.43
2018-01-01T02:29:48.594Z,55.9
2018-01-01T02:30:57.422Z,55.43
2018-01-01T02:32:06.253Z,54.29
2018-01-01T02:33:15.084Z,58.76
2018-01-01T02:34:23.912Z,59.14
2018-01-01T02:35:33.012Z,58.57
2018-01-01T02:36:42.041Z,60.28
2018-01-01T02:37:50.866Z,58.66
2018-01-01T02:38:59.697Z,60.57
2018-01-01T02:40:08.529Z,59.33
2018-01-01T02:41:17.359Z,60.38
2018-01-01T02:42:26.186Z,61.13
2018-01-01T02:43:35.013Z,60.18
2018-01-01T02:44:43.845Z,61.13
2018-01-01T02:45:52.670Z,60.16
2018-01-01T02:47:01.498Z,61.9
2018-01-01T02:48:10.429Z,63.7
2018-01-01T02:49:19.257Z,69.75
2018-01-01T02:50:28.084Z,72.16
2018-01-01T02:51:36.963Z,74.44
2018-01-01T02:52:46.071Z,76.16
2018-01-01T02:53:54.900Z,77.77
2018-01-01T02:55:03.729Z,77.77
2018-01-01T02:56:12.557Z,82.05
2018-01-01T02:57:21.386Z,80.82
2018-01-01T02:58:30.221Z,83.39
2018-01-01T02:59:39.574Z,85
2018-01-01T03:00:48.404Z,83.95
2018-01-01T03:01:57.283Z,86.8
2018-01-01T03:03:06.112Z,86.52
2018-01-01T03:04:14.939Z,88.47
2018-01-01T03:05:23.917Z,86.71
2018-01-01T03:06:32.746Z,86.8
2018-01-01T03:07:41.572Z,87.95
2018-01-01T03:08:50.676Z,88.67
2018-01-01T03:09:59.504Z,89.37
2018-01-01T03:11:08.331Z,87.95
2018-01-01T03:12:17.163Z,88.85
2018-01-01T03:13:25.992Z,88.09
2018-01-01T03:14:34.820Z,87.76
2018-01-01T03:15:43.648Z,88.52
2018-01-01T03:16:52.579Z,87.47
2018-01-01T03:18:01.678Z,86.47
2018-01-01T03:19:10.506Z,88.09
2018-01-01T03:20:19.607Z,87.52
2018-01-01T03:21:28.435Z,86.57
2018-01-01T03:22:37.266Z,86.67
2018-01-01T03:23:46.095Z,88.47
2018-01-01T03:24:54.924Z,87.43
2018-01-01T03:26:03.753Z,85.53
2018-01-01T03:27:12.583Z,84.01
2018-01-01T03:28:21.661Z,79.44
2018-01-01T03:29:30.489Z,79.63
2018-01-01T03:30:39.319Z,80.68
2018-01-01T03:31:48.145Z,78.21
2018-01-01T03:32:56.974Z,74.79
2018-01-01T03:34:05.952Z,76.78
2018-01-01T03:35:14.780Z,76.97
2018-01-01T03:36:23.608Z,77.17
2018-01-01T03:37:32.437Z,76.78
2018-01-01T03:38:41.266Z,77.83
2018-01-01T03:39:50.394Z,78.21
2018-01-01T03:40:59.220Z,78.69
2018-01-01T03:42:08.048Z,76.69
2018-01-01T03:43:16.876Z,77.73
2018-01-01T03:44:25.704Z,78.59
2018-01-01T03:45:34.532Z,78.5
2018-01-01T03:46:43.357Z,77.64
2018-01-01T03:47:52.186Z,78.02
2018-01-01T03:49:01.014Z,80.68
2018-01-01T03:50:09.844Z,84.48
2018-01-01T03:51:18.821Z,81.82
2018-01-01T03:52:27.655Z,83.62
2018-01-01T03:53:36.480Z,85.15
2018-01-01T03:54:45.304Z,79.73
2018-01-01T03:55:54.137Z,84.1
2018-01-01T03:57:03.235Z,83.34
2018-01-01T03:58:12.062Z,87.34
2018-01-01T03:59:20.891Z,89.71
2018-01-01T04:00:29.719Z,90.94
2018-01-01T04:01:38.547Z,88.67
2018-01-01T04:02:47.373Z,89.52
2018-01-01T04:03:56.206Z,89.42
2018-01-01T04:05:05.034Z,89.33
2018-01-01T04:06:13.860Z,89.14
2018-01-01T04:07:22.691Z,91.52
2018-01-01T04:08:31.517Z,89.71
2018-01-01T04:09:40.345Z,91.33
2018-01-01T04:10:49.175Z,91.52
2018-01-01T04:11:58.005Z,92.94
2018-01-01T04:13:07.377Z,91.23
2018-01-01T04:14:16.356Z,91.89
2018-01-01T04:15:25.184Z,91.89
2018-01-01T04:16:34.016Z,93.6
2018-01-01T04:17:43.115Z,92.08
2018-01-01T04:18:51.944Z,92.94
2018-01-01T04:20:00.923Z,91.89
2018-01-01T04:21:09.750Z,91.33
2018-01-01T04:22:18.579Z,91.52
2018-01-01T04:23:27.408Z,91.61
2018-01-01T04:24:36.236Z,92.94
2018-01-01T04:25:45.063Z,91.52
2018-01-01T04:26:53.890Z,92.94
2018-01-01T04:28:02.718Z,92.37
2018-01-01T04:29:11.548Z,91.89
2018-01-01T04:30:20.379Z,95.22
2018-01-01T04:31:29.207Z,91.89
2018-01-01T04:32:38.037Z,92.85
2018-01-01T04:33:46.862Z,93.79
2018-01-01T04:34:55.689Z,91.04
2018-01-01T04:36:04.515Z,90.56
2018-01-01T04:37:13.645Z,92.56
2018-01-01T04:38:22.474Z,91.61
2018-01-01T04:39:31.571Z,91.71
2018-01-01T04:40:40.399Z,92.94
2018-01-01T04:41:49.227Z,93.41
2018-01-01T04:42:58.056Z,91.42
2018-01-01T04:44:06.884Z,92.75
2018-01-01T04:45:15.712Z,94.27
2018-01-01T04:46:24.813Z,92.94
2018-01-01T04:47:33.644Z,92.66
2018-01-01T04:48:42.622Z,92.56
2018-01-01T04:49:51.454Z,93.13
2018-01-01T04:51:00.552Z,89.14
2018-01-01T04:52:09.381Z,91.61
2018-01-01T04:53:18.207Z,91.13
2018-01-01T04:54:27.341Z,90.47
2018-01-01T04:55:36.164Z,91.71
2018-01-01T04:56:45.266Z,90.37
2018-01-01T04:57:54.099Z,91.42
2018-01-01T04:59:02.929Z,89.52
2018-01-01T05:00:11.755Z,89.9
2018-01-01T05:01:20.584Z,89.52
2018-01-01T05:02:29.412Z,91.23
2018-01-01T05:03:38.290Z,92.56
2018-01-01T05:04:47.117Z,89.52
2018-01-01T05:05:55.946Z,92.27
2018-01-01T05:07:04.779Z,92.66
2018-01-01T05:08:13.603Z,91.8
2018-01-01T05:09:22.431Z,92.56
2018-01-01T05:10:31.261Z,89.61
2018-01-01T05:11:40.090Z,87.62
2018-01-01T05:12:48.918Z,92.56
2018-01-01T05:13:58.021Z,92.66
2018-01-01T05:15:06.850Z,95.51
2018-01-01T05:16:15.674Z,94.37
2018-01-01T05:17:24.505Z,94.18
2018-01-01T05:18:33.605Z,94.84
2018-01-01T05:19:42.434Z,94.46
2018-01-01T05:20:51.258Z,94.46
2018-01-01T05:22:00.087Z,94.74
2018-01-01T05:23:09.015Z,92.85
2018-01-01T05:24:17.843Z,95.12
2018-01-01T05:25:26.673Z,94.08
2018-01-01T05:26:35.500Z,94.18
2018-01-01T05:27:44.327Z,96.65
2018-01-01T05:28:53.255Z,95.98
2018-01-01T05:30:02.082Z,96.36
2018-01-01T05:31:10.910Z,96.84
2018-01-01T05:32:19.738Z,95.98
2018-01-01T05:33:28.565Z,95.79
2018-01-01T05:34:37.545Z,95.7
2018-01-01T05:35:46.374Z,95.6
2018-01-01T05:36:55.200Z,95.03
2018-01-01T05:38:04.028Z,95.51
2018-01-01T05:39:12.855Z,95.7
2018-01-01T05:40:21.685Z,96.17
2018-01-01T05:41:30.511Z,96.55
2018-01-01T05:42:39.337Z,95.51
2018-01-01T05:43:48.166Z,95.79
2018-01-01T05:44:57.263Z,95.89
2018-01-01T05:46:06.341Z,94.27
2018-01-01T05:47:15.166Z,95.98
2018-01-01T05:48:23.995Z,93.6
2018-01-01T05:49:32.830Z,95.41
2018-01-01T05:50:41.651Z,93.99
2018-01-01T05:51:50.479Z,90.75
2018-01-01T05:52:59.306Z,91.61
2018-01-01T05:54:08.135Z,92.18
2018-01-01T05:55:16.964Z,91.56
2018-01-01T05:56:25.790Z,90.05
2018-01-01T05:57:34.893Z,88.05
2018-01-01T05:58:43.720Z,82.07
2018-01-01T05:59:52.548Z,83.87
2018-01-01T06:01:01.378Z,82.92
2018-01-01T06:02:10.207Z,83.2
2018-01-01T06:03:19.033Z,82.64
2018-01-01T06:04:27.864Z,81.49
2018-01-01T06:05:36.964Z,81.3
2018-01-01T06:06:45.790Z,80.07
2018-01-01T06:07:54.617Z,74.18
2018-01-01T06:09:03.473Z,71.23
2018-01-01T06:10:12.323Z,66.87
2018-01-01T06:11:21.149Z,64.4
2018-01-01T06:12:29.974Z,62.02
2018-01-01T06:13:38.801Z,60.22
2018-01-01T06:14:47.628Z,60.03
2018-01-01T06:15:56.454Z,58.39
2018-01-01T06:17:05.284Z,55.54
2018-01-01T06:18:14.111Z,55.25
2018-01-01T06:19:22.938Z,56.01
2018-01-01T06:20:32.038Z,56.1
2018-01-01T06:21:40.914Z,52.22
2018-01-01T06:22:49.741Z,53
2018-01-01T06:23:58.563Z,52.5
2018-01-01T06:25:07.662Z,52.4
2018-01-01T06:26:16.590Z,52.12
2018-01-01T06:27:25.418Z,52.87
2018-01-01T06:28:34.297Z,52.97
2018-01-01T06:29:43.123Z,52.78
2018-01-01T06:30:51.951Z,54.02
2018-01-01T06:32:00.782Z,55.63
2018-01-01T06:33:09.605Z,54.97
2018-01-01T06:34:18.433Z,54.97
2018-01-01T06:35:27.261Z,57.06
2018-01-01T06:36:36.086Z,56.2
2018-01-01T06:37:44.916Z,55.91
2018-01-01T06:38:53.744Z,57.62
2018-01-01T06:40:02.572Z,55.91
2018-01-01T06:41:11.397Z,57.62
2018-01-01T06:42:20.225Z,60.19
2018-01-01T06:43:29.204Z,61.33
2018-01-01T06:44:38.030Z,58.29
2018-01-01T06:45:46.960Z,60.19
2018-01-01T06:46:55.786Z,59.05
2018-01-01T06:48:04.617Z,61.14
2018-01-01T06:49:13.866Z,58.58
2018-01-01T06:50:22.689Z,60.76
2018-01-01T06:51:31.519Z,59.33
2018-01-01T06:52:40.343Z,61.42
2018-01-01T06:53:49.170Z,62.56
2018-01-01T06:54:57.997Z,62.18
2018-01-01T06:56:06.819Z,63.04
2018-01-01T06:57:15.646Z,61.99
2018-01-01T06:58:24.469Z,62.46
2018-01-01T06:59:33.297Z,60.28
2018-01-01T07:00:42.222Z,63.32
2018-01-01T07:01:51.051Z,64.75
2018-01-01T07:02:59.946Z,66.36
2018-01-01T07:04:09.091Z,66.83
2018-01-01T07:05:17.917Z,64.08
2018-01-01T07:06:26.792Z,62.75
2018-01-01T07:07:35.620Z,67.88
2018-01-01T07:08:44.728Z,67.79
2018-01-01T07:09:53.562Z,68.16
2018-01-01T07:11:02.686Z,67.97
2018-01-01T07:12:11.562Z,69.4
2018-01-01T07:13:20.388Z,70.82
2018-01-01T07:14:29.215Z,70.25
2018-01-01T07:15:38.042Z,69.02
2018-01-01T07:16:46.867Z,67.88
2018-01-01T07:17:55.897Z,68.83
2018-01-01T07:19:04.723Z,67.4
2018-01-01T07:20:13.550Z,68.07
2018-01-01T07:21:22.378Z,69.21
2018-01-01T07:22:31.205Z,66.83
2018-01-01T07:23:40.131Z,69.3
2018-01-01T07:24:48.958Z,71.58
2018-01-01T07:25:57.788Z,71.86
2018-01-01T07:27:06.889Z,73.86
2018-01-01T07:28:15.715Z,69.78
2018-01-01T07:29:24.548Z,73.29
2018-01-01T07:30:33.646Z,70.88
2018-01-01T07:31:42.471Z,71.2
2018-01-01T07:32:51.570Z,70.98
2018-01-01T07:34:00.395Z,74.2
2018-01-01T07:35:09.372Z,75.57
2018-01-01T07:36:18.200Z,66.52
2018-01-01T07:37:27.032Z,73.29
2018-01-01T07:38:35.851Z,70.21
2018-01-01T07:39:44.697Z,70.21
2018-01-01T07:40:53.823Z,71.86
2018-01-01T07:42:02.653Z,72.02
2018-01-01T07:43:11.475Z,72.21
2018-01-01T07:44:20.574Z,70.31
2018-01-01T07:45:29.399Z,70.54
2018-01-01T07:46:38.273Z,70.06
2018-01-01T07:47:47.101Z,66.99
2018-01-01T07:48:55.925Z,70.06
2018-01-01T07:50:04.754Z,66.55
2018-01-01T07:51:13.574Z,69.4
2018-01-01T07:52:22.705Z,68.54
2018-01-01T07:53:31.531Z,71.96
2018-01-01T07:54:40.358Z,71.96
2018-01-01T07:55:49.186Z,73.57
2018-01-01T07:56:58.016Z,72.78
2018-01-01T07:58:06.852Z,72.81
2018-01-01T07:59:15.947Z,76.86
2018-01-01T08:00:25.046Z,72.88
2018-01-01T08:01:33.876Z,75.91
2018-01-01T08:02:42.704Z,76.2
2018-01-01T08:03:51.854Z,77.43
2018-01-01T08:05:00.966Z,78.32
2018-01-01T08:06:09.795Z,76.67
2018-01-01T08:07:18.621Z,67.88
2018-01-01T08:08:27.447Z,76.23
2018-01-01T08:09:36.701Z,78.8
2018-01-01T08:10:45.800Z,80.08
2018-01-01T08:11:54.628Z,78
2018-01-01T08:13:03.453Z,80.69
2018-01-01T08:14:12.278Z,74.43
2018-01-01T08:15:21.254Z,78.51
2018-01-01T08:16:30.081Z,72.78
2018-01-01T08:17:38.970Z,74.39
2018-01-01T08:18:47.786Z,79.65
2018-01-01T08:19:56.613Z,83.03
2018-01-01T08:21:05.441Z,82.55
2018-01-01T08:22:14.266Z,82.46
2018-01-01T08:23:23.093Z,77.81
2018-01-01T08:24:31.919Z,81.17
2018-01-01T08:25:40.746Z,80.46
2018-01-01T08:26:49.739Z,85.02
2018-01-01T08:27:58.569Z,76.95
2018-01-01T08:29:07.946Z,79.17
2018-01-01T08:30:16.772Z,82.65
2018-01-01T08:31:25.599Z,83.22
2018-01-01T08:32:34.828Z,82.46
2018-01-01T08:33:43.628Z,77.9
2018-01-01T08:34:52.734Z,81.88
2018-01-01T08:36:01.558Z,84.45
2018-01-01T08:37:10.386Z,84.92
2018-01-01T08:38:19.362Z,84.74
2018-01-01T08:39:28.191Z,79.9
2018-01-01T08:40:37.021Z,81.88
2018-01-01T08:41:45.842Z,83.5
2018-01-01T08:42:54.669Z,85.02
2018-01-01T08:44:03.650Z,86.63
2018-01-01T08:45:12.481Z,87.01
2018-01-01T08:46:21.307Z,86.25
2018-01-01T08:47:30.133Z,87.11
2018-01-01T08:48:38.964Z,85.91
2018-01-01T08:49:48.219Z,84.87
2018-01-01T08:50:57.045Z,86.58
2018-01-01T08:52:05.872Z,86.49
2018-01-01T08:53:14.699Z,87.2
2018-01-01T08:54:23.526Z,87.96
2018-01-01T08:55:32.355Z,87.91
2018-01-01T08:56:41.452Z,88.95
2018-01-01T08:57:50.279Z,87.34
2018-01-01T08:58:59.107Z,91.52
2018-01-01T09:00:07.937Z,88.01
2018-01-01T09:01:16.760Z,88.95
2018-01-01T09:02:25.585Z,90.09
2018-01-01T09:03:34.411Z,92.94
2018-01-01T09:04:43.238Z,92.66
2018-01-01T09:05:52.065Z,88.86
2018-01-01T09:07:01.045Z,91.42
2018-01-01T09:08:09.870Z,92.75
2018-01-01T09:09:18.697Z,92.66
2018-01-01T09:10:27.528Z,88.86
2018-01-01T09:11:36.627Z,92.09
2018-01-01T09:12:45.504Z,93.6
2018-01-01T09:13:54.330Z,90.09
2018-01-01T09:15:03.198Z,92.56
2018-01-01T09:16:11.986Z,93.51
2018-01-01T09:17:20.812Z,94.74
2018-01-01T09:18:29.639Z,93.7
2018-01-01T09:19:38.469Z,91.33
2018-01-01T09:20:47.300Z,91.61
2018-01-01T09:21:56.126Z,93.99
2018-01-01T09:23:04.952Z,95.51
2018-01-01T09:24:13.931Z,94.93
2018-01-01T09:25:22.758Z,95.6
2018-01-01T09:26:31.587Z,96.36
2018-01-01T09:27:40.411Z,89.62
2018-01-01T09:28:49.239Z,94.93
2018-01-01T09:29:58.066Z,91.33
2018-01-01T09:31:06.891Z,93.7
2018-01-01T09:32:15.717Z,95.79
2018-01-01T09:33:24.823Z,97.31
2018-01-01T09:34:33.648Z,94.46
2018-01-01T09:35:42.581Z,95.51
2018-01-01T09:36:51.679Z,96.74
2018-01-01T09:38:00.505Z,95.6
2018-01-01T09:39:09.607Z,95.51
2018-01-01T09:40:18.437Z,95.79
2018-01-01T09:41:27.350Z,95.89
2018-01-01T09:42:36.244Z,98.92
2018-01-01T09:43:45.074Z,96.55
2018-01-01T09:44:53.904Z,99.21
2018-01-01T09:46:02.731Z,96.55
2018-01-01T09:47:11.558Z,98.73
2018-01-01T09:48:20.387Z,96.83
2018-01-01T09:49:29.216Z,95.6
2018-01-01T09:50:38.043Z,97.69
2018-01-01T09:51:46.873Z,98.35
2018-01-01T09:52:56.000Z,98.64
2018-01-01T09:54:04.829Z,96.36
2018-01-01T09:55:13.657Z,99.77
2018-01-01T09:56:22.490Z,99.87
2018-01-01T09:57:31.314Z,99.97
2018-01-01T09:58:40.290Z,99.97
2018-01-01T09:59:49.117Z,99.87
2018-01-01T10:00:57.945Z,99.11
2018-01-01T10:02:07.618Z,99.99
2018-01-01T10:03:16.441Z,99.99
2018-01-01T10:04:25.420Z,99.99
2018-01-01T10:05:34.250Z,99.99
2018-01-01T10:06:43.079Z,99.99
2018-01-01T10:07:52.037Z,99.92
2018-01-01T10:09:00.866Z,99.99
2018-01-01T10:10:09.845Z,99.99
2018-01-01T10:11:18.672Z,99.99
2018-01-01T10:12:27.503Z,99.99
2018-01-01T10:13:36.623Z,99.99
2018-01-01T10:14:45.430Z,95.75
2018-01-01T10:15:54.311Z,99.99
2018-01-01T10:17:03.410Z,96.22
2018-01-01T10:18:12.239Z,99.99
2018-01-01T10:19:21.070Z,99.99
2018-01-01T10:20:30.179Z,99.99
2018-01-01T10:21:39.562Z,99.99
2018-01-01T10:22:48.394Z,99.99
2018-01-01T10:23:57.227Z,99.99
2018-01-01T10:25:06.055Z,99.99
2018-01-01T10:26:14.887Z,99.99
2018-01-01T10:27:23.719Z,99.99
2018-01-01T10:28:32.828Z,99.99
2018-01-01T10:29:41.659Z,99.99
2018-01-01T10:30:50.485Z,99.99
2018-01-01T10:31:59.313Z,99.99
2018-01-01T10:33:08.394Z,99.99
2018-01-01T10:34:17.224Z,99.99
2018-01-01T10:35:26.055Z,99.99
2018-01-01T10:36:34.884Z,99.99
2018-01-01T10:37:43.982Z,99.99
2018-01-01T10:38:52.814Z,99.99
2018-01-01T10:40:01.644Z,99.99
2018-01-01T10:41:10.471Z,99.99
2018-01-01T10:42:19.303Z,99.99
2018-01-01T10:43:28.131Z,99.99
2018-01-01T10:44:37.109Z,99.99
2018-01-01T10:45:45.938Z,99.99
2018-01-01T10:46:54.768Z,99.99
2018-01-01T10:48:03.597Z,99.99
2018-01-01T10:49:12.427Z,99.99
2018-01-01T10:50:21.307Z,99.99
2018-01-01T10:51:30.142Z,99.99
2018-01-01T10:52:38.965Z,99.99
2018-01-01T10:53:47.795Z,99.99
2018-01-01T10:54:57.168Z,99.99
2018-01-01T10:56:06.305Z,99.99
2018-01-01T10:57:15.136Z,99.99
2018-01-01T10:58:23.964Z,99.99
2018-01-01T10:59:32.790Z,99.99
2018-01-01T11:00:41.617Z,99.99
2018-01-01T11:01:50.445Z,99.99
2018-01-01T11:02:59.273Z,99.99
2018-01-01T11:04:08.102Z,99.99
2018-01-01T11:05:17.206Z,99.99
2018-01-01T11:06:26.033Z,99.99
2018-01-01T11:07:34.871Z,99.99
2018-01-01T11:08:43.703Z,99.99
2018-01-01T11:09:52.809Z,99.99
2018-01-01T11:11:01.647Z,99.99
2018-01-01T11:12:10.620Z,99.99
2018-01-01T11:13:19.450Z,99.99
2018-01-01T11:14:28.280Z,99.99
2018-01-01T11:15:37.108Z,99.99
2018-01-01T11:16:45.937Z,99.99
2018-01-01T11:17:54.770Z,99.99
2018-01-01T11:19:03.595Z,99.99
2018-01-01T11:20:12.422Z,99.99
2018-01-01T11:21:21.252Z,99.99
2018-01-01T11:22:30.081Z,99.99
2018-01-01T11:23:38.907Z,99.99
2018-01-01T11:24:47.738Z,99.99
2018-01-01T11:25:56.569Z,99.99
2018-01-01T11:27:05.394Z,99.99
2018-01-01T11:28:14.223Z,99.99
2018-01-01T11:29:23.051Z,99.99
2018-01-01T11:30:31.881Z,99.99
2018-01-01T11:31:40.706Z,99.99
2018-01-01T11:32:49.535Z,99.99
2018-01-01T11:33:58.365Z,99.99
2018-01-01T11:35:07.192Z,99.99
2018-01-01T11:36:16.023Z,99.99
2018-01-01T11:37:24.855Z,99.99
2018-01-01T11:38:33.964Z,99.99
2018-01-01T11:39:42.793Z,99.99
2018-01-01T11:40:51.622Z,99.99
2018-01-01T11:42:00.456Z,99.99
2018-01-01T11:43:09.605Z,99.99
2018-01-01T11:44:18.489Z,99.99
2018-01-01T11:45:27.904Z,99.99
2018-01-01T11:46:36.733Z,99.99
2018-01-01T11:47:45.567Z,99.99
2018-01-01T11:48:54.394Z,99.99
2018-01-01T11:50:03.794Z,99.99
2018-01-01T11:51:12.624Z,99.99
2018-01-01T11:52:21.473Z,99.99
2018-01-01T11:53:30.303Z,99.99
2018-01-01T11:54:39.132Z,99.99
2018-01-01T11:55:48.111Z,99.99
2018-01-01T11:56:56.941Z,99.99
2018-01-01T11:58:05.771Z,99.99
2018-01-01T11:59:15.151Z,99.99
2018-01-01T12:00:24.004Z,99.99
2018-01-01T12:01:32.883Z,99.99
2018-01-01T12:02:41.712Z,99.99
2018-01-01T12:03:50.543Z,99.99
2018-01-01T12:04:59.372Z,99.99
2018-01-01T12:06:08.205Z,99.99
2018-01-01T12:07:17.187Z,99.99
2018-01-01T12:08:26.016Z,99.99
2018-01-01T12:09:34.847Z,99.99
2018-01-01T12:10:43.949Z,99.99
2018-01-01T12:11:53.053Z,99.99
2018-01-01T12:13:02.183Z,99.99
2018-01-01T12:14:11.011Z,99.99
2018-01-01T12:15:19.840Z,99.99
2018-01-01T12:16:28.678Z,99.99
2018-01-01T12:17:37.501Z,99.99
2018-01-01T12:18:46.329Z,99.99
2018-01-01T12:19:55.161Z,99.99
2018-01-01T12:21:03.993Z,99.99
2018-01-01T12:22:12.823Z,99.99
2018-01-01T12:23:21.650Z,99.99
2018-01-01T12:24:30.479Z,99.99
2018-01-01T12:25:39.310Z,99.99
2018-01-01T12:26:48.139Z,99.99
2018-01-01T12:27:56.971Z,99.99
2018-01-01T12:29:05.802Z,99.99
2018-01-01T12:30:15.008Z,99.99
2018-01-01T12:31:24.112Z,99.99
2018-01-01T12:32:32.941Z,99.99
2018-01-01T12:33:42.047Z,99.99
2018-01-01T12:34:50.879Z,99.99
2018-01-01T12:36:00.140Z,99.99
2018-01-01T12:37:09.004Z,99.99
2018-01-01T12:38:17.834Z,99.99
2018-01-01T12:39:26.666Z,99.99
2018-01-01T12:40:35.496Z,99.99
2018-01-01T12:41:44.424Z,99.99
2018-01-01T12:42:53.254Z,99.99
2018-01-01T12:44:02.358Z,99.99
2018-01-01T12:45:11.186Z,99.99
2018-01-01T12:46:20.016Z,99.99
2018-01-01T12:47:28.843Z,99.99
2018-01-01T12:48:37.672Z,99.99
2018-01-01T12:49:46.499Z,99.99
2018-01-01T12:50:55.328Z,99.99
2018-01-01T12:52:04.158Z,99.99
2018-01-01T12:53:13.141Z,99.99
2018-01-01T12:54:21.965Z,99.99
2018-01-01T12:55:31.070Z,99.99
2018-01-01T12:56:40.178Z,99.99
2018-01-01T12:57:49.005Z,99.99
2018-01-01T12:58:57.834Z,99.99
2018-01-01T13:00:07.398Z,99.99
2018-01-01T13:01:15.490Z,99.99
2018-01-01T13:02:24.323Z,99.99
2018-01-01T13:03:33.432Z,99.99
2018-01-01T13:04:42.313Z,99.99
2018-01-01T13:05:51.143Z,99.99
2018-01-01T13:06:59.974Z,99.99
2018-01-01T13:08:08.800Z,99.99
2018-01-01T13:09:17.903Z,99.99
2018-01-01T13:10:26.782Z,99.99
2018-01-01T13:11:35.614Z,99.99
2018-01-01T13:12:44.439Z,99.99
2018-01-01T13:13:53.270Z,99.99
2018-01-01T13:15:02.103Z,99.99
2018-01-01T13:16:11.033Z,99.99
2018-01-01T13:17:19.870Z,99.99
2018-01-01T13:18:28.702Z,99.99
2018-01-01T13:19:37.531Z,99.99
2018-01-01T13:20:46.361Z,99.99
2018-01-01T13:21:55.190Z,99.99
2018-01-01T13:23:04.019Z,99.99
2018-01-01T13:24:12.854Z,99.99
2018-01-01T13:25:21.956Z,99.99
2018-01-01T13:26:30.786Z,99.99
2018-01-01T13:27:39.915Z,99.99
2018-01-01T13:28:48.744Z,99.99
2018-01-01T13:29:57.572Z,99.99
2018-01-01T13:31:06.400Z,99.99
2018-01-01T13:32:15.229Z,99.99
2018-01-01T13:33:24.357Z,99.99
2018-01-01T13:34:33.187Z,99.99
2018-01-01T13:35:42.016Z,99.99
2018-01-01T13:36:51.129Z,99.99
2018-01-01T13:37:59.961Z,99.99
2018-01-01T13:39:08.842Z,99.99
2018-01-01T13:40:17.675Z,99.99
2018-01-01T13:41:26.806Z,99.99
2018-01-01T13:42:35.635Z,99.99
2018-01-01T13:43:44.816Z,99.99
2018-01-01T13:44:53.796Z,99.99
2018-01-01T13:46:02.627Z,99.99
2018-01-01T13:47:11.456Z,99.99
2018-01-01T13:48:20.285Z,99.99
2018-01-01T13:49:29.112Z,99.99
2018-01-01T13:50:38.215Z,99.99
2018-01-01T13:51:47.047Z,99.99
2018-01-01T13:52:55.878Z,99.99
2018-01-01T13:54:04.706Z,99.99
2018-01-01T13:55:13.790Z,99.99
2018-01-01T13:56:22.773Z,99.99
2018-01-01T13:57:31.603Z,99.99
2018-01-01T13:58:40.433Z,99.99
2018-01-01T13:59:49.261Z,99.99
2018-01-01T14:00:58.096Z,99.99
2018-01-01T14:02:07.212Z,99.99
2018-01-01T14:03:16.042Z,99.99
2018-01-01T14:04:24.870Z,99.99
2018-01-01T14:05:33.697Z,99.99
2018-01-01T14:06:42.527Z,99.99
2018-01-01T14:07:51.712Z,99.99
2018-01-01T14:09:00.488Z,99.99
2018-01-01T14:10:09.314Z,99.99
2018-01-01T14:11:18.144Z,99.99
2018-01-01T14:12:26.973Z,99.99
2018-01-01T14:13:35.802Z,99.99
2018-01-01T14:14:44.669Z,99.99
2018-01-01T14:15:53.460Z,99.99
2018-01-01T14:17:02.289Z,99.99
2018-01-01T14:18:11.118Z,99.99
2018-01-01T14:19:20.100Z,99.99
2018-01-01T14:20:28.932Z,99.99
2018-01-01T14:21:37.767Z,99.99
2018-01-01T14:22:46.594Z,99.99
2018-01-01T14:23:55.424Z,99.99
2018-01-01T14:25:04.942Z,99.99
2018-01-01T14:26:13.770Z,99.99
2018-01-01T14:27:22.600Z,99.99
2018-01-01T14:28:31.437Z,99.99
2018-01-01T14:29:40.258Z,99.99
2018-01-01T14:30:49.140Z,99.99
2018-01-01T14:31:58.253Z,99.99
2018-01-01T14:33:07.081Z,99.99
2018-01-01T14:34:15.910Z,99.99
2018-01-01T14:35:24.745Z,99.99
2018-01-01T14:36:33.675Z,99.99
2018-01-01T14:37:42.506Z,99.99
2018-01-01T14:38:51.339Z,99.99
2018-01-01T14:40:00.450Z,99.99
2018-01-01T14:41:09.278Z,99.99
2018-01-01T14:42:18.258Z,99.99
2018-01-01T14:43:27.088Z,99.99
2018-01-01T14:44:35.919Z,99.99
2018-01-01T14:45:44.751Z,99.99
2018-01-01T14:46:53.580Z,99.99
2018-01-01T14:48:02.511Z,99.99
2018-01-01T14:49:11.346Z,99.99